Charles Town, WV (25414)

5:25 AM EDT on October 23, 2014 (GMT -0400)
Ranson, West Virginia | Change Station
CLOSE
Current Station
Personal Weather Station
Location: Ranson, WV
Elevation: 531 ft
Nearby Weather Stations

Elev 531 ft 39.30 °N, 77.87 °W | Updated 7 seconds ago

Overcast
Overcast
49.9 °F
Feels Like 50 °F
N
0.0
Wind Variable Wind from ENE
Gusts 0.0 mph

Today
High -- | Low -- °F
--% Chance of Precip.
Yesterday
High -- | Low -- °F
Precip. -- in
7:29 AM 6:21 PM
Waning Crescent, 0% visible
Pressure 29.96 in
Visibility 10.0 miles
Clouds Mostly Cloudy 3000 ft
Overcast 5500 ft
Windchill 50 °F
Dew Point 40 °F
Humidity 70%
Rainfall 0.00 in
Snow Depth Not available.
UV 0 out of 12
Pollen .20 out of 12
Air Quality Not available.
Flu Activity Sporadic
METAR KMRB 230853Z AUTO 32011KT 10SM BKN030 OVC055 11/04 A2996 RMK AO2 SLP145 T01060039 56006 TSNO

More Conditions Fewer Conditions

Pressure 29.96 in
Visibility 10.0 miles
Clouds Mostly Cloudy 3000 ft
Overcast 5500 ft
Windchill 50 °F
Dew Point 40 °F
Humidity 70%
Rainfall 0.00 in
Snow Depth Not available.
UV 0 out of 12
Pollen .20 out of 12
Air Quality Not available.
Flu Activity Sporadic
METAR KMRB 230853Z AUTO 32011KT 10SM BKN030 OVC055 11/04 A2996 RMK AO2 SLP145 T01060039 56006 TSNO

More Conditions Fewer Conditions

10-Day Weather Forecast

Almanac

Astronomy

Oct. 23, 2014 Rise Set
Actual Time 7:29 AM EDT 6:21 PM EDT
Civil Twilight 7:02 AM EDT 6:48 PM EDT
Nautical Twilight 6:30 AM EDT 7:19 PM EDT
Astronomical Twilight 5:59 AM EDT 7:50 PM EDT
Moon 7:07 AM EDT 6:21 PM EDT
Length of Visible Light 11h 46m
Length of Day
10h 51m
Tomorrow will be 2m 23s shorter.
Waning Crescent, 0% of the Moon is Illuminated
Today
Waning Crescent
Oct 23
New
Oct 30
First Quarter
Nov 6
Full
Nov 14
Last Quarter

Today's Extremes

State Highs State Lows

Community

WunderPhotos

Upload Photos

1,764,199 photos uploaded!

Nearby

Snow Depth

Station Depth Elevation
No new snow has been reported.

Earthquake Activity

City Distance Mag. Time & Date
No recent earthquake activity has been reported nearby.
Minimum magnitude displayed is 2.5.

Coastal Water Temperatures

Place Temperature
No Stations Reporting

Nearby Weather Stations